createdAt,value
2022-08-22T00:00:59.882Z,40.10
2022-08-22T00:02:59.228Z,40.39
2022-08-22T00:06:41.710Z,40.23
2022-08-22T00:12:12.588Z,40.39
2022-08-22T00:18:07.486Z,40.63
2022-08-22T00:23:52.780Z,40.84
2022-08-22T00:29:19.515Z,40.90
2022-08-22T00:35:07.928Z,40.55
2022-08-22T00:40:55.921Z,40.58
2022-08-22T00:46:29.051Z,40.38
2022-08-22T00:52:00.479Z,40.59
2022-08-22T00:57:48.478Z,40.63
2022-08-22T01:03:42.705Z,40.67
2022-08-22T01:09:33.401Z,40.71
2022-08-22T01:15:00.576Z,40.75
2022-08-22T01:20:40.413Z,40.75
2022-08-22T01:26:55.960Z,40.39
2022-08-22T01:33:12.987Z,40.83
2022-08-22T01:38:52.713Z,40.75
2022-08-22T01:44:44.994Z,40.93
2022-08-22T01:50:19.129Z,40.73
2022-08-22T01:55:54.227Z,40.65
2022-08-22T02:01:36.347Z,40.86
2022-08-22T02:07:31.947Z,40.61
2022-08-22T02:13:12.562Z,40.80
2022-08-22T02:19:15.619Z,40.81
2022-08-22T02:25:06.979Z,40.87
2022-08-22T02:30:47.159Z,40.60
2022-08-22T02:36:42.164Z,40.83
2022-08-22T02:42:28.837Z,40.89
2022-08-22T02:48:17.931Z,40.92
2022-08-22T02:53:54.573Z,40.77
2022-08-22T02:59:37.137Z,40.96
2022-08-22T03:05:14.739Z,40.83
2022-08-22T03:10:43.535Z,40.92
2022-08-22T03:16:16.576Z,40.80
2022-08-22T03:21:59.905Z,40.92
2022-08-22T03:27:33.745Z,40.97
2022-08-22T03:33:01.982Z,41.06
2022-08-22T03:38:32.879Z,40.89
2022-08-22T03:44:00.504Z,40.84
2022-08-22T03:49:47.002Z,40.71
2022-08-22T03:55:34.930Z,40.96
2022-08-22T04:01:28.695Z,40.93
2022-08-22T04:07:28.575Z,41.07
2022-08-22T04:13:29.336Z,40.96
2022-08-22T04:19:09.248Z,40.89
2022-08-22T04:24:38.635Z,41.03
2022-08-22T04:30:06.663Z,41.14
2022-08-22T04:35:46.401Z,41.00
2022-08-22T04:41:14.029Z,41.15
2022-08-22T04:46:45.788Z,40.81
2022-08-22T04:52:07.419Z,40.99
2022-08-22T04:57:51.002Z,40.72
2022-08-22T05:03:17.142Z,41.03
2022-08-22T05:08:40.719Z,41.09
2022-08-22T05:14:16.506Z,41.05
2022-08-22T05:19:40.794Z,41.13
2022-08-22T05:25:09.708Z,41.02
2022-08-22T05:30:35.685Z,41.23
2022-08-22T05:36:20.530Z,41.14
2022-08-22T05:41:42.728Z,41.09
2022-08-22T05:47:31.907Z,41.05
2022-08-22T05:53:18.374Z,41.27
2022-08-22T05:58:40.333Z,41.03
2022-08-22T06:04:08.020Z,41.40
2022-08-22T06:10:11.769Z,41.26
2022-08-22T06:15:52.051Z,41.03
2022-08-22T06:21:21.289Z,41.16
2022-08-22T06:26:48.799Z,41.26
2022-08-22T06:32:31.556Z,41.23
2022-08-22T06:38:03.769Z,41.31
2022-08-22T06:43:25.786Z,41.41
2022-08-22T06:48:49.289Z,41.03
2022-08-22T06:54:19.708Z,41.20
2022-08-22T06:59:44.072Z,41.27
2022-08-22T07:05:10.111Z,40.98
2022-08-22T07:10:31.999Z,41.35
2022-08-22T07:15:57.661Z,41.33
2022-08-22T07:21:46.406Z,41.44
2022-08-22T07:27:12.356Z,41.21
2022-08-22T07:32:50.987Z,41.41
2022-08-22T07:38:18.477Z,41.50
2022-08-22T07:43:57.344Z,41.46
2022-08-22T07:49:27.031Z,41.79
2022-08-22T07:54:55.338Z,41.52
2022-08-22T08:00:20.489Z,41.44
2022-08-22T08:05:45.282Z,41.08
2022-08-22T08:11:10.025Z,41.50
2022-08-22T08:16:43.000Z,41.46
2022-08-22T08:22:05.844Z,41.45
2022-08-22T08:27:50.451Z,41.28
2022-08-22T08:33:25.528Z,41.48
2022-08-22T08:39:16.507Z,41.62
2022-08-22T08:45:19.725Z,41.38
2022-08-22T08:51:07.934Z,41.29
2022-08-22T08:56:55.983Z,41.49
2022-08-22T09:02:36.795Z,41.52
2022-08-22T09:08:34.209Z,41.52
2022-08-22T09:14:27.002Z,41.57
2022-08-22T09:20:00.612Z,41.51
2022-08-22T09:25:38.740Z,41.32
2022-08-22T09:31:02.726Z,41.72
2022-08-22T09:36:50.778Z,41.68
2022-08-22T09:42:30.751Z,41.55
2022-08-22T09:48:07.228Z,41.59
2022-08-22T09:53:54.817Z,41.54
2022-08-22T09:59:50.731Z,41.50
2022-08-22T10:05:35.133Z,41.46
2022-08-22T10:11:13.751Z,41.58
2022-08-22T10:16:47.533Z,41.53
2022-08-22T10:22:15.900Z,41.72
2022-08-22T10:27:40.407Z,41.79
2022-08-22T10:33:20.047Z,41.35
2022-08-22T10:38:49.337Z,41.71
2022-08-22T10:44:38.023Z,41.64
2022-08-22T10:50:31.057Z,41.61
2022-08-22T10:56:03.855Z,41.44
2022-08-22T11:01:37.530Z,41.47
2022-08-22T11:07:35.533Z,41.31
2022-08-22T11:13:16.049Z,41.92
2022-08-22T11:19:02.448Z,41.66
2022-08-22T11:24:35.385Z,41.89
2022-08-22T11:30:02.149Z,42.38
2022-08-22T11:35:31.960Z,42.05
2022-08-22T11:40:59.465Z,41.73
2022-08-22T11:46:27.397Z,41.44
2022-08-22T11:52:10.555Z,41.66
2022-08-22T11:57:35.336Z,41.85
2022-08-22T12:03:17.497Z,42.06
2022-08-22T12:08:46.340Z,42.32
2022-08-22T12:14:56.277Z,42.41
2022-08-22T12:20:28.234Z,42.66
2022-08-22T12:25:49.991Z,42.56
2022-08-22T12:31:34.126Z,42.62
2022-08-22T12:37:03.759Z,42.74
2022-08-22T12:42:57.381Z,43.07
2022-08-22T12:48:34.012Z,42.89
2022-08-22T12:54:39.991Z,42.58
2022-08-22T13:00:23.054Z,42.83
2022-08-22T13:05:52.114Z,42.39
2022-08-22T13:11:23.593Z,42.06
2022-08-22T13:16:51.209Z,42.15
2022-08-22T13:22:19.696Z,42.02
2022-08-22T13:27:51.085Z,41.78
2022-08-22T13:33:22.274Z,41.81
2022-08-22T13:38:57.875Z,41.74
2022-08-22T13:44:30.540Z,41.57
2022-08-22T13:50:05.369Z,41.27
2022-08-22T13:55:49.091Z,41.17
2022-08-22T14:01:40.663Z,40.44
2022-08-22T14:07:02.947Z,41.08
2022-08-22T14:12:33.542Z,40.86
2022-08-22T14:18:01.774Z,40.95
2022-08-22T14:23:29.469Z,40.97
2022-08-22T14:28:56.739Z,40.68
2022-08-22T14:34:18.955Z,40.82
2022-08-22T14:40:03.836Z,40.27
2022-08-22T14:45:33.125Z,40.09
2022-08-22T14:50:59.913Z,39.95
2022-08-22T14:56:25.114Z,39.49
2022-08-22T15:01:57.208Z,39.87
2022-08-22T15:07:29.765Z,39.87
2022-08-22T15:12:58.800Z,39.35
2022-08-22T15:18:23.381Z,39.41
2022-08-22T15:23:47.015Z,39.08
2022-08-22T15:29:17.841Z,38.73
2022-08-22T15:34:46.055Z,38.47
2022-08-22T15:40:12.054Z,37.97
2022-08-22T15:45:37.519Z,37.99
2022-08-22T15:51:13.540Z,38.14
2022-08-22T15:56:46.246Z,38.41
2022-08-22T16:02:20.635Z,38.94
2022-08-22T16:07:51.227Z,38.71
2022-08-22T16:13:29.538Z,39.33
2022-08-22T16:18:51.357Z,39.08
2022-08-22T16:24:12.971Z,39.45
2022-08-22T16:29:41.473Z,39.80
2022-08-22T16:35:04.061Z,40.06
2022-08-22T16:40:26.606Z,40.27
2022-08-22T16:45:51.252Z,40.38
2022-08-22T16:51:18.861Z,38.93
2022-08-22T16:57:09.221Z,39.21
2022-08-22T17:02:52.901Z,39.32
2022-08-22T17:08:14.518Z,39.21
2022-08-22T17:13:36.126Z,39.24
2022-08-22T17:19:03.658Z,39.35
2022-08-22T17:24:48.810Z,39.66
2022-08-22T17:30:21.284Z,39.39
2022-08-22T17:35:55.749Z,38.96
2022-08-22T17:41:32.216Z,39.38
2022-08-22T17:47:17.013Z,39.27
2022-08-22T17:52:48.527Z,39.39
2022-08-22T17:58:36.066Z,39.39
2022-08-22T18:04:01.610Z,39.38
2022-08-22T18:09:36.958Z,39.37
2022-08-22T18:15:46.307Z,39.91
2022-08-22T18:21:25.076Z,39.61
2022-08-22T18:27:02.423Z,39.32
2022-08-22T18:32:41.951Z,39.82
2022-08-22T18:38:19.409Z,39.47
2022-08-22T18:43:45.227Z,39.86
2022-08-22T18:49:19.797Z,39.69
2022-08-22T18:54:44.562Z,40.10
2022-08-22T19:00:18.929Z,39.86
2022-08-22T19:06:25.634Z,40.16
2022-08-22T19:12:19.158Z,40.19
2022-08-22T19:17:59.350Z,40.16
2022-08-22T19:23:33.171Z,40.25
2022-08-22T19:29:18.847Z,40.49
2022-08-22T19:34:47.871Z,40.70
2022-08-22T19:40:11.831Z,40.57
2022-08-22T19:45:39.908Z,40.46
2022-08-22T19:51:21.720Z,40.51
2022-08-22T19:57:07.050Z,40.25
2022-08-22T20:02:49.987Z,40.43
2022-08-22T20:08:50.368Z,40.01
2022-08-22T20:14:31.133Z,40.22
2022-08-22T20:25:50.794Z,40.23
2022-08-22T20:31:21.747Z,40.56
2022-08-22T20:36:45.797Z,40.31
2022-08-22T20:42:14.085Z,40.32
2022-08-22T20:47:41.369Z,40.58
2022-08-22T20:53:22.173Z,40.58
2022-08-22T20:58:48.965Z,40.66
2022-08-22T21:04:11.609Z,40.83
2022-08-22T21:09:52.138Z,40.67
2022-08-22T21:15:13.808Z,40.91
2022-08-22T21:20:37.521Z,41.04
2022-08-22T21:26:08.836Z,40.85
2022-08-22T21:31:35.497Z,40.98
2022-08-22T21:37:01.818Z,40.92
2022-08-22T21:42:34.492Z,40.97
2022-08-22T21:47:56.835Z,41.08
2022-08-22T21:53:28.470Z,41.25
2022-08-22T21:58:50.171Z,40.79
2022-08-22T22:04:15.033Z,41.06
2022-08-22T22:09:36.939Z,40.98
2022-08-22T22:14:58.791Z,41.01
2022-08-22T22:20:22.815Z,41.19
2022-08-22T22:25:45.890Z,41.27
2022-08-22T22:31:07.916Z,41.17
2022-08-22T22:36:29.677Z,41.26
2022-08-22T22:41:51.500Z,41.34
2022-08-22T22:47:13.670Z,41.10
2022-08-22T22:52:40.676Z,41.16
2022-08-22T22:58:03.380Z,41.23
2022-08-22T23:03:26.915Z,41.29
2022-08-22T23:08:48.945Z,41.11
2022-08-22T23:14:10.750Z,41.37
2022-08-22T23:19:32.519Z,41.19
2022-08-22T23:24:54.235Z,41.29
2022-08-22T23:30:15.947Z,40.91
2022-08-22T23:35:37.735Z,41.28
2022-08-22T23:41:09.557Z,41.40
2022-08-22T23:46:31.600Z,40.90
2022-08-22T23:51:55.930Z,41.13
2022-08-22T23:57:17.804Z,40.93
